Time;durP1;ratioP1;P1;durP2;ratioP2;P2;SDS_P1;SDS_P2;PMS_P1;PMS_P2;Temp;Humidity;BMP_temperature;BMP_pressure;BME280_temperature;BME280_humidity;BME280_pressure;Samples;Min_cycle;Max_cycle;Signal;HPM_P1;HPM_P2
2022/08/27 00:00:31;;;;;;;10.68;3.13;;;18.80;99.90;;;;;;5054407;28;20116;-81
2022/08/27 00:02:58;;;;;;;11.70;4.45;;;18.80;99.90;;;;;;5055293;28;20094;-82
2022/08/27 00:05:24;;;;;;;10.88;3.97;;;18.80;99.90;;;;;;5055090;28;20021;-82
2022/08/27 00:07:49;;;;;;;10.13;4.28;;;18.80;99.90;;;;;;5054892;28;20072;-82
2022/08/27 00:10:19;;;;;;;7.95;3.58;;;18.70;99.90;;;;;;5054906;28;20040;-82
2022/08/27 00:12:47;;;;;;;9.90;3.38;;;18.80;99.90;;;;;;5054623;28;20499;-82
2022/08/27 00:15:14;;;;;;;7.93;3.25;;;19.00;99.90;;;;;;5054419;28;20035;-82
2022/08/27 00:17:41;;;;;;;8.70;3.28;;;18.90;99.90;;;;;;5054351;28;20100;-82
2022/08/27 00:20:07;;;;;;;11.55;3.42;;;18.90;99.90;;;;;;5054845;28;20108;-82
2022/08/27 00:22:34;;;;;;;10.75;3.40;;;18.80;99.90;;;;;;5054759;28;20029;-82
2022/08/27 00:25:00;;;;;;;13.07;2.88;;;18.90;99.90;;;;;;5053975;28;20017;-82
2022/08/27 00:27:26;;;;;;;14.25;3.13;;;18.70;99.90;;;;;;5054454;28;20128;-82
2022/08/27 00:29:52;;;;;;;9.23;3.45;;;18.70;99.90;;;;;;5069742;28;20529;-81
2022/08/27 00:32:18;;;;;;;11.02;3.50;;;18.70;99.90;;;;;;5054376;28;20091;-81
2022/08/27 00:34:44;;;;;;;10.15;3.72;;;18.70;99.90;;;;;;5053653;28;20511;-82
2022/08/27 00:37:10;;;;;;;10.10;3.25;;;18.80;99.90;;;;;;5053152;28;20056;-82
2022/08/27 00:39:36;;;;;;;14.48;3.50;;;18.70;99.90;;;;;;5054053;28;20498;-82
2022/08/27 00:42:03;;;;;;;9.63;3.13;;;18.60;99.90;;;;;;5054356;28;20028;-82
2022/08/27 00:44:30;;;;;;;4.53;2.25;;;18.70;99.90;;;;;;5053960;28;20466;-82
2022/08/27 00:47:01;;;;;;;9.82;2.72;;;18.80;99.90;;;;;;5054228;28;20021;-82
2022/08/27 00:49:37;;;;;;;9.40;3.13;;;18.80;99.90;;;;;;5054278;28;20100;-82
2022/08/27 00:52:27;;;;;;;13.95;3.83;;;18.80;99.90;;;;;;5053375;28;20041;-82
2022/08/27 00:55:07;;;;;;;8.80;2.70;;;18.90;99.90;;;;;;5054261;28;20044;-82
2022/08/27 00:57:36;;;;;;;11.70;4.13;;;18.80;99.90;;;;;;5054958;28;20112;-82
2022/08/27 01:00:03;;;;;;;10.10;3.53;;;18.70;99.90;;;;;;5053077;28;20396;-81
2022/08/27 01:02:30;;;;;;;8.00;3.30;;;18.80;99.90;;;;;;5054128;28;20029;-81
2022/08/27 01:05:10;;;;;;;8.55;3.15;;;18.80;99.90;;;;;;5054295;28;20421;-82
2022/08/27 01:07:40;;;;;;;11.13;3.72;;;18.60;99.90;;;;;;5054026;28;20052;-81
2022/08/27 01:10:10;;;;;;;9.93;3.30;;;18.70;99.90;;;;;;5054087;28;20373;-82
2022/08/27 01:12:37;;;;;;;9.38;3.78;;;18.60;99.90;;;;;;5053640;28;20136;-82
2022/08/27 01:15:07;;;;;;;8.25;3.30;;;18.40;99.90;;;;;;5052150;28;20584;-82
2022/08/27 01:17:33;;;;;;;9.48;3.72;;;18.30;99.90;;;;;;5053528;28;20025;-81
2022/08/27 01:20:04;;;;;;;6.97;3.70;;;18.30;99.90;;;;;;5053811;28;20017;-82
2022/08/27 01:22:52;;;;;;;8.60;3.40;;;18.10;99.90;;;;;;5052312;28;20025;-82
2022/08/27 01:25:20;;;;;;;8.40;3.50;;;18.20;99.90;;;;;;5040442;28;20112;-81
2022/08/27 01:27:47;;;;;;;9.60;3.15;;;18.10;99.90;;;;;;5051813;28;20112;-81
2022/08/27 01:30:16;;;;;;;7.20;3.30;;;18.20;99.90;;;;;;5053359;28;20037;-82
2022/08/27 01:32:44;;;;;;;15.30;3.97;;;18.10;99.90;;;;;;5053294;28;20389;-82
2022/08/27 01:35:13;;;;;;;13.35;4.60;;;18.40;99.90;;;;;;5053364;28;20373;-82
2022/08/27 01:37:42;;;;;;;10.18;3.30;;;18.00;99.90;;;;;;5052928;28;20108;-82
2022/08/27 01:40:09;;;;;;;10.20;4.53;;;17.80;99.90;;;;;;5053137;28;20481;-82
2022/08/27 01:42:40;;;;;;;9.35;4.07;;;17.60;99.90;;;;;;5052888;28;20025;-82
2022/08/27 01:45:08;;;;;;;;;;;17.40;99.90;;;;;;5052312;28;20511;-81
2022/08/27 01:47:35;;;;;;;11.65;3.72;;;17.10;99.90;;;;;;5053018;28;19905;-81
2022/08/27 01:50:09;;;;;;;9.45;3.20;;;17.40;99.90;;;;;;5052859;28;20029;-81
2022/08/27 01:52:35;;;;;;;10.15;3.30;;;17.20;99.90;;;;;;5053159;28;20115;-81
2022/08/27 01:55:01;;;;;;;7.75;2.95;;;17.30;99.90;;;;;;5051706;28;20101;-82
2022/08/27 01:57:27;;;;;;;8.77;2.97;;;17.10;99.90;;;;;;5051546;28;20552;-82
2022/08/27 01:59:55;;;;;;;9.32;3.08;;;17.20;99.90;;;;;;5053116;28;20060;-82
2022/08/27 02:02:22;;;;;;;8.75;3.20;;;17.50;99.90;;;;;;5052262;28;20025;-82
2022/08/27 02:04:49;;;;;;;9.20;2.63;;;17.50;99.90;;;;;;5051057;28;20338;-82
2022/08/27 02:07:15;;;;;;;8.35;2.58;;;17.30;99.90;;;;;;5050840;28;20476;-81
2022/08/27 02:09:41;;;;;;;8.05;2.20;;;17.00;99.90;;;;;;5051829;28;20029;-81
2022/08/27 02:12:07;;;;;;;9.95;2.67;;;16.70;99.90;;;;;;5052278;28;20395;-81
2022/08/27 02:14:33;;;;;;;10.18;2.72;;;16.60;99.90;;;;;;5050934;28;20029;-82
2022/08/27 02:16:59;;;;;;;8.98;2.92;;;16.60;99.90;;;;;;5052319;28;20075;-81
2022/08/27 02:19:26;;;;;;;8.45;2.85;;;16.70;99.90;;;;;;5052716;28;20024;-82
2022/08/27 02:21:52;;;;;;;9.57;2.65;;;17.00;99.90;;;;;;5052076;28;20013;-82
2022/08/27 02:24:18;;;;;;;8.40;3.05;;;17.30;99.90;;;;;;5052113;28;20053;-82
2022/08/27 02:26:44;;;;;;;8.23;2.65;;;17.60;99.90;;;;;;5051621;28;20067;-82
2022/08/27 02:29:11;;;;;;;12.70;2.53;;;17.60;99.90;;;;;;5051089;28;20461;-81
2022/08/27 02:31:37;;;;;;;9.25;3.30;;;17.00;99.90;;;;;;5052259;28;20029;-81
2022/08/27 02:34:03;;;;;;;12.80;2.90;;;16.60;99.90;;;;;;5052191;28;20031;-81
2022/08/27 02:36:29;;;;;;;9.55;3.53;;;16.60;99.90;;;;;;5051866;28;20624;-81
2022/08/27 02:38:55;;;;;;;14.68;3.28;;;16.50;99.90;;;;;;5051934;28;20112;-81
2022/08/27 02:41:21;;;;;;;10.27;3.58;;;16.50;99.90;;;;;;5052165;28;20452;-81
2022/08/27 02:43:47;;;;;;;6.80;2.90;;;16.80;99.90;;;;;;5052169;28;20056;-81
2022/08/27 02:46:13;;;;;;;10.68;3.28;;;17.00;99.90;;;;;;5051862;28;20496;-81
2022/08/27 02:48:41;;;;;;;11.05;3.00;;;16.80;99.90;;;;;;5052249;28;20029;-81
2022/08/27 02:51:07;;;;;;;10.20;2.83;;;16.50;99.90;;;;;;5052200;28;20033;-81
2022/08/27 02:53:36;;;;;;;13.40;3.90;;;16.20;99.90;;;;;;5060150;28;20489;-81
2022/08/27 02:56:03;;;;;;;8.82;3.47;;;16.30;99.90;;;;;;5053156;28;20026;-81
2022/08/27 02:58:28;;;;;;;16.88;3.53;;;16.20;99.90;;;;;;5052130;28;20033;-81
2022/08/27 03:00:55;;;;;;;13.23;4.10;;;16.30;99.90;;;;;;5067217;28;20025;-81
2022/08/27 03:03:21;;;;;;;13.50;3.47;;;16.20;99.90;;;;;;5052308;28;20377;-81
2022/08/27 03:05:47;;;;;;;8.95;3.38;;;16.40;99.90;;;;;;5052214;28;20025;-82
2022/08/27 03:08:13;;;;;;;8.13;3.78;;;16.10;99.90;;;;;;5052115;28;20475;-81
2022/08/27 03:10:39;;;;;;;7.60;3.70;;;15.90;99.90;;;;;;5051960;28;20052;-82
2022/08/27 03:13:04;;;;;;;13.23;3.60;;;15.80;99.90;;;;;;5051435;28;20013;-81
2022/08/27 03:15:30;;;;;;;15.93;4.25;;;15.70;99.90;;;;;;5050462;28;20062;-81
2022/08/27 03:20:43;;;;;;;10.02;4.05;;;15.70;99.90;;;;;;5051981;28;20029;-82
2022/08/27 03:23:10;;;;;;;8.90;3.60;;;16.00;99.90;;;;;;5051561;28;20033;-81
2022/08/27 03:25:37;;;;;;;13.70;3.63;;;16.00;99.90;;;;;;5051312;28;20025;-81
2022/08/27 03:28:03;;;;;;;15.93;3.92;;;15.90;99.90;;;;;;5051246;28;20116;-81
2022/08/27 03:30:30;;;;;;;15.10;4.20;;;15.90;99.90;;;;;;5051613;28;20569;-80
2022/08/27 03:32:56;;;;;;;11.60;3.40;;;15.80;99.90;;;;;;5050679;28;20036;-81
2022/08/27 03:35:22;;;;;;;8.60;3.47;;;16.10;99.90;;;;;;5051418;28;20017;-81
2022/08/27 03:37:49;;;;;;;12.90;4.53;;;16.30;99.90;;;;;;5051398;28;20029;-81
2022/08/27 03:40:16;;;;;;;9.30;3.78;;;16.50;99.90;;;;;;5050956;28;20017;-81
2022/08/27 03:42:42;;;;;;;9.30;3.63;;;16.20;99.90;;;;;;5051700;28;20119;-80
2022/08/27 03:45:09;;;;;;;9.68;3.67;;;15.80;99.90;;;;;;5051593;28;20082;-81
2022/08/27 03:47:36;;;;;;;8.13;3.65;;;16.10;99.90;;;;;;5050593;28;20095;-81
2022/08/27 03:50:04;;;;;;;14.98;3.92;;;16.30;99.90;;;;;;5051618;28;20388;-81
2022/08/27 03:52:32;;;;;;;10.40;4.25;;;16.50;99.90;;;;;;5050215;28;20448;-80
2022/08/27 03:54:58;;;;;;;11.50;3.60;;;16.50;99.90;;;;;;5050614;28;20025;-81
2022/08/27 03:57:24;;;;;;;10.35;3.80;;;16.70;99.90;;;;;;5051550;28;20040;-79
2022/08/27 03:59:50;;;;;;;6.47;3.70;;;16.60;99.90;;;;;;5051631;28;20029;-82
2022/08/27 04:02:16;;;;;;;10.15;3.55;;;16.70;99.90;;;;;;5051581;28;20056;-82
2022/08/27 04:04:42;;;;;;;7.35;3.70;;;16.80;99.90;;;;;;5051705;28;20033;-80
2022/08/27 04:07:11;;;;;;;9.75;4.40;;;16.70;99.90;;;;;;5050845;28;20024;-79
2022/08/27 04:09:37;;;;;;;12.82;4.35;;;16.20;99.90;;;;;;5040871;28;20104;-80
2022/08/27 04:12:03;;;;;;;12.15;4.38;;;16.40;99.90;;;;;;5054529;28;20171;-80
2022/08/27 04:14:29;;;;;;;9.52;4.00;;;16.10;99.90;;;;;;5053061;28;20033;-79
2022/08/27 04:16:56;;;;;;;7.10;4.00;;;15.80;99.90;;;;;;5054984;28;20065;-79
2022/08/27 04:19:24;;;;;;;7.45;4.30;;;15.70;99.90;;;;;;5053324;28;20502;-80
2022/08/27 04:21:50;;;;;;;9.48;3.80;;;15.70;99.90;;;;;;5054358;28;20032;-80
2022/08/27 04:24:16;;;;;;;13.48;4.93;;;15.60;99.90;;;;;;5053314;28;20017;-79
2022/08/27 04:26:44;;;;;;;14.25;5.13;;;15.50;99.90;;;;;;5054411;28;20115;-79
2022/08/27 04:29:10;;;;;;;11.00;3.95;;;15.70;99.90;;;;;;5053367;28;20036;-80
2022/08/27 04:31:36;;;;;;;15.07;4.43;;;15.60;99.90;;;;;;5054355;28;20040;-80
2022/08/27 04:34:03;;;;;;;6.82;4.20;;;15.70;99.90;;;;;;5054569;28;20041;-81
2022/08/27 04:36:29;;;;;;;10.00;4.22;;;15.90;99.90;;;;;;5053984;28;20033;-81
2022/08/27 04:38:55;;;;;;;11.63;4.43;;;16.10;99.90;;;;;;5054293;28;20354;-81
2022/08/27 04:41:22;;;;;;;10.18;4.13;;;16.30;99.90;;;;;;5054626;28;20392;-81
2022/08/27 04:43:55;;;;;;;9.15;3.63;;;16.00;99.90;;;;;;5054400;28;20552;-81
2022/08/27 04:46:30;;;;;;;9.57;4.38;;;16.10;99.90;;;;;;5053913;28;20028;-81
2022/08/27 04:48:57;;;;;;;11.75;4.78;;;16.40;99.90;;;;;;5053699;28;20025;-81
2022/08/27 04:51:24;;;;;;;8.77;4.45;;;16.30;99.90;;;;;;5053377;28;20035;-81
2022/08/27 04:53:50;;;;;;;9.32;4.13;;;15.90;99.90;;;;;;5054218;28;20093;-82
2022/08/27 04:56:21;;;;;;;14.23;4.60;;;16.00;99.90;;;;;;5053991;28;20492;-81
2022/08/27 04:58:48;;;;;;;6.68;4.15;;;15.70;99.90;;;;;;5054334;28;20043;-82
2022/08/27 05:01:20;;;;;;;11.35;4.78;;;15.90;99.90;;;;;;5053911;28;20033;-81
2022/08/27 05:03:46;;;;;;;12.98;4.20;;;16.10;99.90;;;;;;5052766;28;20075;-81
2022/08/27 05:06:12;;;;;;;10.25;4.70;;;15.70;99.90;;;;;;5053917;28;20025;-81
2022/08/27 05:08:39;;;;;;;8.80;4.55;;;15.50;99.90;;;;;;5054400;28;20112;-81
2022/08/27 05:11:13;;;;;;;16.15;4.60;;;15.50;99.90;;;;;;5053858;28;20496;-81
2022/08/27 05:13:41;;;;;;;8.32;4.88;;;15.50;99.90;;;;;;5053869;28;20060;-81
2022/08/27 05:16:10;;;;;;;12.10;4.70;;;15.30;99.90;;;;;;5052124;28;20442;-81
2022/08/27 05:18:37;;;;;;;11.25;4.55;;;15.60;99.90;;;;;;5039957;28;20036;-81
2022/08/27 05:21:04;;;;;;;23.35;5.53;;;15.80;99.90;;;;;;5053193;28;20040;-81
2022/08/27 05:23:30;;;;;;;16.45;6.10;;;16.20;99.90;;;;;;5053299;28;20112;-81
2022/08/27 05:25:56;;;;;;;14.85;5.88;;;16.40;99.90;;;;;;5053441;28;20472;-81
2022/08/27 05:28:24;;;;;;;21.33;5.53;;;16.50;99.90;;;;;;5052995;28;20037;-81
2022/08/27 05:31:01;;;;;;;12.82;5.78;;;16.70;99.90;;;;;;5069049;28;20035;-81
2022/08/27 05:33:27;;;;;;;12.00;5.03;;;16.70;99.90;;;;;;5051963;28;20025;-81
2022/08/27 05:35:55;;;;;;;13.27;5.90;;;16.50;99.90;;;;;;5053185;28;20132;-80
2022/08/27 05:38:23;;;;;;;13.27;5.35;;;16.50;99.90;;;;;;5051841;28;20028;-81
2022/08/27 05:41:00;;;;;;;11.45;5.32;;;16.60;99.90;;;;;;5053458;28;20483;-81
2022/08/27 05:43:26;;;;;;;11.73;5.63;;;16.40;99.90;;;;;;5053119;28;20043;-81
2022/08/27 05:45:52;;;;;;;17.58;5.78;;;15.90;99.90;;;;;;5053324;28;20098;-81
2022/08/27 05:48:18;;;;;;;9.90;5.10;;;15.90;99.90;;;;;;5053265;28;20457;-79
2022/08/27 05:50:44;;;;;;;12.38;5.85;;;15.80;99.90;;;;;;5052937;28;20029;-81
2022/08/27 05:53:12;;;;;;;12.02;6.22;;;16.00;99.90;;;;;;5053504;28;20021;-81
2022/08/27 05:55:41;;;;;;;22.20;7.35;;;16.60;99.90;;;;;;5052974;28;20393;-81
2022/08/27 06:01:03;;;;;;;16.25;6.32;;;16.60;99.90;;;;;;5053295;28;20021;-81
2022/08/27 06:01:04;;;;;;;11.88;6.03;;;16.40;99.90;;;;;;5052944;28;20048;-81
2022/08/27 06:03:31;;;;;;;18.02;7.53;;;16.60;99.90;;;;;;5052756;28;20028;-82
2022/08/27 06:06:06;;;;;;;15.23;6.65;;;16.80;99.90;;;;;;5051636;28;20021;-81
2022/08/27 06:08:32;;;;;;;12.63;6.70;;;17.30;99.90;;;;;;5037090;28;20029;-81
2022/08/27 06:11:04;;;;;;;9.82;5.63;;;17.10;99.90;;;;;;5050653;28;20025;-80
2022/08/27 06:13:31;;;;;;;12.43;5.35;;;17.40;99.90;;;;;;5050923;28;20033;-77
2022/08/27 06:16:06;;;;;;;18.80;5.05;;;17.70;99.90;;;;;;5051453;28;20017;-77
2022/08/27 06:18:40;;;;;;;12.13;5.50;;;17.60;99.90;;;;;;5072990;28;20029;-76
2022/08/27 06:21:06;;;;;;;10.30;4.35;;;17.80;99.90;;;;;;5050307;28;20037;-77
2022/08/27 06:23:33;;;;;;;14.95;5.45;;;17.90;99.90;;;;;;5051456;28;20025;-77
2022/08/27 06:26:00;;;;;;;12.32;4.97;;;18.20;99.90;;;;;;5051099;28;20040;-76
2022/08/27 06:28:28;;;;;;;16.55;5.40;;;18.00;99.90;;;;;;5051604;28;20028;-78
2022/08/27 06:31:08;;;;;;;14.77;5.10;;;17.90;99.90;;;;;;5051015;28;20033;-77
2022/08/27 06:33:34;;;;;;;15.32;5.22;;;18.00;99.90;;;;;;5051062;28;20444;-77
2022/08/27 06:36:01;;;;;;;10.57;4.85;;;18.00;99.90;;;;;;5051894;28;20492;-77
2022/08/27 06:38:27;;;;;;;12.43;4.80;;;17.90;99.90;;;;;;5050738;28;20025;-77
2022/08/27 06:40:55;;;;;;;12.70;4.60;;;18.10;99.90;;;;;;5050454;28;20120;-77
2022/08/27 06:43:22;;;;;;;12.95;5.53;;;18.30;99.90;;;;;;5051161;28;20115;-77
2022/08/27 06:45:48;;;;;;;7.15;4.32;;;17.90;99.90;;;;;;5050018;28;20051;-77
2022/08/27 06:48:14;;;;;;;18.83;4.95;;;18.40;99.90;;;;;;5051088;28;20073;-77
2022/08/27 06:50:41;;;;;;;16.98;5.45;;;18.30;99.90;;;;;;5048134;28;20025;-77
2022/08/27 06:53:08;;;;;;;17.45;5.38;;;18.40;99.90;;;;;;5050718;28;20025;-77
2022/08/27 06:55:45;;;;;;;9.07;3.47;;;18.50;99.90;;;;;;5053137;28;20064;-77
2022/08/27 06:58:11;;;;;;;11.18;3.85;;;18.20;99.90;;;;;;5073818;28;20173;-77
2022/08/27 07:00:38;;;;;;;10.15;3.55;;;18.00;99.90;;;;;;5055359;28;20048;-77
2022/08/27 07:03:05;;;;;;;15.52;3.10;;;18.10;99.90;;;;;;5054406;28;20465;-77
2022/08/27 07:05:32;;;;;;;12.38;3.40;;;18.10;99.90;;;;;;5060525;28;20021;-77
2022/08/27 07:07:59;;;;;;;7.47;3.15;;;18.30;99.90;;;;;;5044384;28;20028;-78
2022/08/27 07:10:26;;;;;;;14.35;3.10;;;18.20;99.90;;;;;;5051518;28;20078;-77
2022/08/27 07:12:53;;;;;;;12.60;2.88;;;18.40;99.90;;;;;;5070331;28;20404;-77
2022/08/27 07:15:19;;;;;;;11.20;3.08;;;18.70;99.90;;;;;;5051376;28;20029;-77
2022/08/27 07:17:45;;;;;;;10.07;2.65;;;18.80;99.90;;;;;;5045857;28;20060;-77
2022/08/27 07:20:12;;;;;;;5.18;2.25;;;19.20;99.90;;;;;;5045827;28;20025;-76
2022/08/27 07:22:39;;;;;;;14.20;3.10;;;19.30;99.90;;;;;;5048965;28;20025;-77
2022/08/27 07:25:06;;;;;;;11.98;2.40;;;19.60;99.90;;;;;;5042332;28;20040;-78
2022/08/27 07:27:32;;;;;;;10.95;2.10;;;19.80;99.90;;;;;;5049800;28;20507;-78
2022/08/27 07:29:58;;;;;;;8.00;2.20;;;20.10;99.90;;;;;;5049483;28;20465;-78
2022/08/27 07:32:24;;;;;;;11.95;2.15;;;20.20;99.90;;;;;;5051048;28;20123;-76
2022/08/27 07:34:50;;;;;;;9.40;2.60;;;20.30;99.90;;;;;;5049922;28;20021;-78
2022/08/27 07:37:16;;;;;;;8.63;2.00;;;20.30;99.90;;;;;;5051206;28;20071;-77
2022/08/27 07:39:42;;;;;;;3.45;1.92;;;19.90;99.90;;;;;;5048435;28;20028;-78
2022/08/27 07:44:52;;;;;;;6.20;2.00;;;19.70;99.90;;;;;;5062751;28;20543;-79
2022/08/27 07:47:18;;;;;;;6.72;1.88;;;19.80;99.90;;;;;;5054425;28;20029;-79
2022/08/27 07:49:43;;;;;;;9.90;2.28;;;20.10;99.90;;;;;;5050322;28;20029;-82
2022/08/27 07:52:10;;;;;;;5.05;1.92;;;20.20;99.90;;;;;;5048884;28;20047;-78
2022/08/27 07:54:36;;;;;;;11.35;2.45;;;20.00;99.90;;;;;;5054095;28;20358;-79
2022/08/27 07:57:02;;;;;;;9.05;1.98;;;20.10;99.90;;;;;;5054276;28;20083;-78
2022/08/27 07:59:28;;;;;;;6.93;1.42;;;20.30;99.90;;;;;;5053924;28;20116;-79
2022/08/27 08:01:55;;;;;;;5.70;1.65;;;20.40;99.90;;;;;;5054139;28;20108;-78
2022/08/27 08:04:21;;;;;;;11.68;4.10;;;20.50;99.90;;;;;;5053291;28;20029;-78
2022/08/27 08:06:48;;;;;;;10.00;2.45;;;20.80;99.90;;;;;;5052833;28;20025;-78
2022/08/27 08:09:14;;;;;;;7.53;2.25;;;20.90;99.90;;;;;;5053347;28;20036;-78
2022/08/27 08:11:40;;;;;;;8.73;2.17;;;21.00;99.90;;;;;;5054805;28;20037;-78
2022/08/27 08:14:05;;;;;;;13.73;2.45;;;21.10;99.90;;;;;;5052796;28;20028;-78
2022/08/27 08:16:31;;;;;;;12.00;2.72;;;21.40;99.90;;;;;;5054434;28;20159;-78
2022/08/27 08:18:59;;;;;;;8.13;3.33;;;21.60;99.90;;;;;;5052462;28;20157;-79
2022/08/27 08:21:25;;;;;;;9.40;2.67;;;21.80;99.90;;;;;;5048206;28;20040;-79
2022/08/27 08:23:51;;;;;;;9.10;2.47;;;21.60;99.90;;;;;;5051537;28;20404;-79
2022/08/27 08:26:17;;;;;;;7.70;2.30;;;21.50;99.90;;;;;;5052539;28;20021;-79
2022/08/27 08:28:44;;;;;;;6.93;2.58;;;21.70;99.90;;;;;;5051123;28;20658;-79
2022/08/27 08:31:11;;;;;;;5.38;1.85;;;22.10;99.90;;;;;;5051235;28;20095;-81
2022/08/27 08:33:37;;;;;;;4.53;1.73;;;21.90;99.90;;;;;;5053060;28;20625;-80
2022/08/27 08:36:10;;;;;;;11.23;2.53;;;21.50;99.90;;;;;;5053211;28;20036;-81
2022/08/27 08:38:36;;;;;;;8.00;2.20;;;21.90;99.90;;;;;;5051180;28;20017;-81
2022/08/27 08:41:04;;;;;;;6.55;1.80;;;22.10;99.90;;;;;;5051987;28;20021;-79
2022/08/27 08:43:37;;;;;;;8.00;2.00;;;22.50;99.90;;;;;;5053110;28;20055;-80
2022/08/27 08:46:38;;;;;;;7.25;2.17;;;22.60;99.90;;;;;;5053137;28;20021;-81
2022/08/27 08:49:27;;;;;;;10.98;2.80;;;22.70;99.90;;;;;;5052003;28;20021;-80
2022/08/27 08:52:01;;;;;;;7.45;2.30;;;23.00;99.90;;;;;;5052550;28;20039;-81
2022/08/27 08:54:32;;;;;;;8.07;2.10;;;23.00;99.90;;;;;;5051784;28;20045;-81
2022/08/27 08:57:07;;;;;;;6.65;1.67;;;22.60;99.90;;;;;;5052777;28;20106;-80
2022/08/27 08:59:38;;;;;;;7.80;1.98;;;22.00;99.90;;;;;;5051355;28;20082;-82
2022/08/27 09:02:07;;;;;;;4.20;1.55;;;22.00;99.90;;;;;;5049994;28;20028;-80
2022/08/27 09:04:33;;;;;;;5.20;1.70;;;21.70;99.90;;;;;;5051868;28;20086;-81
2022/08/27 09:07:17;;;;;;;4.03;1.80;;;21.80;99.90;;;;;;5066090;28;20029;-81
2022/08/27 09:09:43;;;;;;;10.27;1.80;;;21.80;99.90;;;;;;5052156;28;20374;-80
2022/08/27 09:12:17;;;;;;;8.80;2.08;;;21.60;99.90;;;;;;5053065;28;20044;-80
2022/08/27 09:15:09;;;;;;;8.73;1.73;;;21.90;99.90;;;;;;5049457;28;20046;-80
2022/08/27 09:17:36;;;;;;;10.25;2.28;;;21.60;99.90;;;;;;5052727;28;20037;-80
2022/08/27 09:20:03;;;;;;;9.88;2.30;;;21.80;99.90;;;;;;5052989;28;20017;-80
2022/08/27 09:23:01;;;;;;;5.38;1.83;;;22.00;99.90;;;;;;5052899;28;20025;-80
2022/08/27 09:25:30;;;;;;;7.10;1.58;;;21.50;99.90;;;;;;5052040;28;20385;-80
2022/08/27 09:27:59;;;;;;;5.50;2.20;;;21.40;99.90;;;;;;5052223;28;20033;-81
2022/08/27 09:30:29;;;;;;;9.40;2.15;;;21.00;99.90;;;;;;5052450;28;20071;-80
2022/08/27 09:33:03;;;;;;;9.18;2.47;;;20.90;99.90;;;;;;5050463;28;20138;-80
2022/08/27 09:35:41;;;;;;;11.38;2.25;;;21.10;99.90;;;;;;5052951;28;20469;-79
2022/08/27 09:38:08;;;;;;;7.97;2.30;;;21.10;99.90;;;;;;5053380;28;20025;-79
2022/08/27 09:40:51;;;;;;;7.55;2.33;;;21.00;99.90;;;;;;5052327;28;20017;-79
2022/08/27 09:43:25;;;;;;;13.57;3.38;;;20.80;99.90;;;;;;5052513;28;20036;-80
2022/08/27 09:45:56;;;;;;;6.72;2.28;;;20.70;99.90;;;;;;5052118;28;20025;-80
2022/08/27 09:48:29;;;;;;;6.15;2.55;;;20.90;99.90;;;;;;5046937;28;20031;-80
2022/08/27 09:50:58;;;;;;;8.93;2.28;;;20.90;99.90;;;;;;5046846;28;20102;-80
2022/08/27 09:53:29;;;;;;;11.55;2.67;;;20.90;99.90;;;;;;5046015;28;20428;-79
2022/08/27 09:56:03;;;;;;;12.52;3.42;;;20.90;99.90;;;;;;5052752;28;20040;-80
2022/08/27 09:58:54;;;;;;;6.60;2.80;;;20.80;99.90;;;;;;5053024;28;20112;-79
2022/08/27 10:01:25;;;;;;;8.43;2.47;;;20.90;99.90;;;;;;5051623;28;20355;-79
2022/08/27 10:04:13;;;;;;;5.10;2.10;;;21.10;99.90;;;;;;5051667;28;20028;-80
2022/08/27 10:06:50;;;;;;;6.47;2.15;;;21.00;99.90;;;;;;5052522;28;20142;-79
2022/08/27 10:09:25;;;;;;;18.40;2.40;;;21.00;99.90;;;;;;5052764;28;20104;-81
2022/08/27 10:11:57;;;;;;;4.80;2.00;;;21.00;99.90;;;;;;5052588;28;20065;-79
2022/08/27 10:14:35;;;;;;;4.82;1.73;;;21.10;99.90;;;;;;5053089;28;20424;-80
2022/08/27 10:17:07;;;;;;;11.65;2.85;;;21.20;99.90;;;;;;5038017;28;20017;-80
2022/08/27 10:19:56;;;;;;;;;;;20.90;99.90;;;;;;5034807;28;20102;-79
2022/08/27 10:22:50;;;;;;;6.97;2.33;;;20.70;99.90;;;;;;5052059;28;20269;-80
2022/08/27 10:25:36;;;;;;;4.80;1.95;;;21.00;99.90;;;;;;5052027;28;20108;-80
2022/08/27 10:28:47;;;;;;;5.82;1.90;;;20.90;99.90;;;;;;5052021;28;20033;-79
2022/08/27 10:31:31;;;;;;;5.78;1.75;;;21.10;99.90;;;;;;5042832;28;20124;-79
2022/08/27 10:34:19;;;;;;;8.32;2.00;;;21.30;99.90;;;;;;5039390;28;20033;-78
2022/08/27 10:36:54;;;;;;;6.60;1.92;;;21.30;99.90;;;;;;5060525;28;20028;-79
2022/08/27 10:39:50;;;;;;;5.90;1.90;;;21.40;99.90;;;;;;5050808;28;20078;-80
2022/08/27 10:42:29;;;;;;;6.03;2.22;;;21.60;99.90;;;;;;5051769;28;20469;-80
2022/08/27 10:45:11;;;;;;;10.45;2.22;;;21.60;99.90;;;;;;5052029;28;20419;-81
2022/08/27 10:47:40;;;;;;;5.80;2.00;;;21.80;99.90;;;;;;5049540;28;20028;-80
2022/08/27 10:50:16;;;;;;;10.27;2.30;;;22.10;99.90;;;;;;5051932;28;20051;-80
2022/08/27 10:52:51;;;;;;;11.27;2.40;;;22.30;99.90;;;;;;5049881;28;20040;-81
2022/08/27 10:55:32;;;;;;;6.90;1.88;;;22.80;99.90;;;;;;5048676;28;20029;-81
2022/08/27 10:58:13;;;;;;;5.35;2.00;;;22.50;99.90;;;;;;5049476;28;20393;-80
2022/08/27 11:01:02;;;;;;;6.32;2.30;;;22.40;99.90;;;;;;5051941;28;20123;-80
2022/08/27 11:03:35;;;;;;;3.55;1.85;;;22.40;99.90;;;;;;5053399;28;20040;-79
2022/08/27 11:06:23;;;;;;;8.38;2.67;;;22.00;99.40;;;;;;5052077;28;20479;-78
2022/08/27 11:08:55;;;;;;;16.13;2.03;;;21.80;99.40;;;;;;5048678;28;20021;-79
2022/08/27 11:11:40;;;;;;;8.63;1.85;;;22.30;99.90;;;;;;5051583;28;20460;-79
2022/08/27 11:14:15;;;;;;;5.15;1.75;;;23.10;99.00;;;;;;5051846;28;20029;-78
2022/08/27 11:16:47;;;;;;;5.93;1.85;;;23.50;97.70;;;;;;5050494;28;20025;-77
2022/08/27 11:19:30;;;;;;;5.57;1.98;;;23.40;98.40;;;;;;5054372;28;20485;-80
2022/08/27 11:22:34;;;;;;;9.38;2.55;;;23.90;98.10;;;;;;5055317;28;20021;-79
2022/08/27 11:25:12;;;;;;;3.03;1.70;;;24.10;96.80;;;;;;5033794;28;20041;-79
2022/08/27 11:27:40;;;;;;;4.90;1.83;;;24.80;96.80;;;;;;5054213;28;20029;-79
2022/08/27 11:30:08;;;;;;;6.00;2.15;;;25.10;95.80;;;;;;5055244;28;20496;-79
2022/08/27 11:32:57;;;;;;;4.72;1.80;;;25.00;95.90;;;;;;5055467;28;20028;-79
2022/08/27 11:35:54;;;;;;;12.23;2.60;;;25.60;96.00;;;;;;5054181;28;20070;-79
2022/08/27 11:38:59;;;;;;;10.25;2.75;;;25.10;96.10;;;;;;5053860;28;20025;-78
2022/08/27 11:41:45;;;;;;;4.95;2.28;;;24.20;97.40;;;;;;5054069;28;20082;-79
2022/08/27 11:44:13;;;;;;;8.00;2.42;;;24.60;97.40;;;;;;5052202;28;20075;-80
2022/08/27 11:46:53;;;;;;;7.97;2.50;;;24.10;97.50;;;;;;5054134;28;20119;-79
2022/08/27 11:49:46;;;;;;;8.68;2.55;;;24.40;97.50;;;;;;5053129;28;20037;-79
2022/08/27 11:52:24;;;;;;;6.07;2.10;;;25.00;96.90;;;;;;5053663;28;20033;-79
2022/08/27 11:54:57;;;;;;;6.20;2.25;;;25.30;96.30;;;;;;5053911;28;20041;-80
2022/08/27 11:57:35;;;;;;;6.97;2.25;;;25.60;96.50;;;;;;5067810;28;20540;-80
2022/08/27 12:00:25;;;;;;;5.07;2.15;;;26.20;95.80;;;;;;5052883;28;20166;-78
2022/08/27 12:03:02;;;;;;;6.95;2.55;;;25.30;96.00;;;;;;5053543;28;20030;-79
2022/08/27 12:05:43;;;;;;;5.35;2.40;;;24.80;95.80;;;;;;5053660;28;20119;-78
2022/08/27 12:08:21;;;;;;;5.60;3.15;;;24.60;96.40;;;;;;5051433;28;20382;-80
2022/08/27 12:11:17;;;;;;;6.53;2.22;;;24.60;97.70;;;;;;5053440;28;20033;-79
2022/08/27 12:13:55;;;;;;;6.55;3.00;;;25.00;96.60;;;;;;5053534;28;20167;-80
2022/08/27 12:16:29;;;;;;;9.45;2.53;;;25.00;96.60;;;;;;5053329;28;20040;-81
2022/08/27 12:19:03;;;;;;;8.55;2.80;;;25.20;95.40;;;;;;5052285;28;20029;-80
2022/08/27 12:21:38;;;;;;;7.35;2.95;;;25.40;95.90;;;;;;5053129;28;20167;-81
2022/08/27 12:24:36;;;;;;;8.27;2.60;;;25.60;95.40;;;;;;5053368;28;20040;-81
2022/08/27 12:27:30;;;;;;;6.57;2.47;;;25.60;95.50;;;;;;5038127;28;20094;-81
2022/08/27 12:30:01;;;;;;;8.77;2.78;;;26.10;95.70;;;;;;5051418;28;20401;-80
2022/08/27 12:32:43;;;;;;;11.70;3.30;;;26.40;94.70;;;;;;5051391;28;20033;-80
2022/08/27 12:35:18;;;;;;;10.85;3.10;;;27.40;94.20;;;;;;5051167;28;20028;-81
2022/08/27 12:37:50;;;;;;;5.75;2.50;;;27.00;93.40;;;;;;5051488;28;20039;-81
2022/08/27 12:40:25;;;;;;;7.38;2.88;;;25.60;94.70;;;;;;5053276;28;20032;-79
2022/08/27 12:43:04;;;;;;;5.38;2.47;;;25.50;95.00;;;;;;5053125;28;20025;-80
2022/08/27 12:45:30;;;;;;;4.78;2.13;;;25.50;95.40;;;;;;5052979;28;20029;-79
2022/08/27 12:47:56;;;;;;;4.68;2.00;;;26.10;94.70;;;;;;5052788;28;20461;-79
2022/08/27 12:50:26;;;;;;;4.72;2.17;;;26.50;93.70;;;;;;5052371;28;20489;-81
2022/08/27 12:53:11;;;;;;;5.25;2.33;;;26.40;93.70;;;;;;5059113;28;20500;-80
2022/08/27 12:55:48;;;;;;;8.57;2.13;;;26.60;93.70;;;;;;5064768;28;20036;-82
2022/08/27 12:58:25;;;;;;;7.32;2.55;;;26.70;93.40;;;;;;5052044;28;20099;-82
2022/08/27 13:00:55;;;;;;;8.05;2.60;;;26.80;93.40;;;;;;5054935;28;20381;-82
2022/08/27 13:03:30;;;;;;;5.65;2.55;;;26.10;93.60;;;;;;5056419;28;20032;-82
2022/08/27 13:05:59;;;;;;;8.35;2.15;;;26.40;93.50;;;;;;5061839;28;20021;-83
2022/08/27 13:08:32;;;;;;;7.05;2.53;;;26.10;94.00;;;;;;5060136;28;20083;-82